createdAt,value
2023-09-22T00:00:50.296Z,14.50
2023-09-22T00:03:17.330Z,14.50
2023-09-22T00:05:44.222Z,14.50
2023-09-22T00:08:11.164Z,14.40
2023-09-22T00:10:37.974Z,14.30
2023-09-22T00:13:06.009Z,14.30
2023-09-22T00:15:35.421Z,14.30
2023-09-22T00:18:02.779Z,14.20
2023-09-22T00:20:30.494Z,14.20
2023-09-22T00:22:57.555Z,14.20
2023-09-22T00:25:24.461Z,14.20
2023-09-22T00:27:51.473Z,14.20
2023-09-22T00:30:18.745Z,14.10
2023-09-22T00:32:45.849Z,14.10
2023-09-22T00:35:13.672Z,14.00
2023-09-22T00:37:41.889Z,14.00
2023-09-22T00:40:10.123Z,14.00
2023-09-22T00:42:37.104Z,13.90
2023-09-22T00:45:04.342Z,13.80
2023-09-22T00:47:31.570Z,13.90
2023-09-22T00:49:58.499Z,13.90
2023-09-22T00:52:26.567Z,13.80
2023-09-22T00:54:54.277Z,13.70
2023-09-22T00:57:22.519Z,13.70
2023-09-22T00:59:50.984Z,13.70
2023-09-22T01:02:17.875Z,13.70
2023-09-22T01:04:44.747Z,13.70
2023-09-22T01:07:14.259Z,13.70
2023-09-22T01:09:43.236Z,13.70
2023-09-22T01:12:10.660Z,13.70
2023-09-22T01:14:37.648Z,13.70
2023-09-22T01:17:04.535Z,13.70
2023-09-22T01:19:31.443Z,13.70
2023-09-22T01:21:58.742Z,13.60
2023-09-22T01:24:25.680Z,13.60
2023-09-22T01:26:52.509Z,13.60
2023-09-22T01:29:20.397Z,13.50
2023-09-22T01:31:47.358Z,13.50
2023-09-22T01:34:17.174Z,13.40
2023-09-22T01:36:44.267Z,13.40
2023-09-22T01:39:15.173Z,13.40
2023-09-22T01:41:42.192Z,13.40
2023-09-22T01:44:09.822Z,13.30
2023-09-22T01:46:36.946Z,13.40
2023-09-22T01:49:03.955Z,13.20
2023-09-22T01:51:30.840Z,13.20
2023-09-22T01:53:58.060Z,13.20
2023-09-22T01:56:25.032Z,13.20
2023-09-22T01:58:51.948Z,13.10
2023-09-22T02:01:19.138Z,13.20
2023-09-22T02:03:46.268Z,13.20
2023-09-22T02:06:13.347Z,13.20
2023-09-22T02:08:40.410Z,13.20
2023-09-22T02:11:07.209Z,13.20
2023-09-22T02:13:34.144Z,13.20
2023-09-22T02:16:01.858Z,13.20
2023-09-22T02:18:28.833Z,13.20
2023-09-22T02:20:55.657Z,13.20
2023-09-22T02:23:22.969Z,13.20
2023-09-22T02:25:49.777Z,13.20
2023-09-22T02:28:16.616Z,13.20
2023-09-22T02:30:43.438Z,13.10
2023-09-22T02:33:10.882Z,13.20
2023-09-22T02:35:41.534Z,13.20
2023-09-22T02:38:08.405Z,13.20
2023-09-22T02:40:35.208Z,13.20
2023-09-22T02:43:02.112Z,13.20
2023-09-22T02:45:29.057Z,13.20
2023-09-22T02:47:56.037Z,13.10
2023-09-22T02:50:22.918Z,13.10
2023-09-22T02:52:49.840Z,13.10
2023-09-22T02:55:18.286Z,13.20
2023-09-22T02:57:47.326Z,13.10
2023-09-22T03:00:22.947Z,13.20
2023-09-22T03:02:51.120Z,13.30
2023-09-22T03:05:19.943Z,13.30
2023-09-22T03:07:49.586Z,13.40
2023-09-22T03:10:16.674Z,13.40
2023-09-22T03:12:44.329Z,13.40
2023-09-22T03:15:13.071Z,13.30
2023-09-22T03:17:40.515Z,13.30
2023-09-22T03:20:08.976Z,13.40
2023-09-22T03:22:38.040Z,13.30
2023-09-22T03:25:06.247Z,13.40
2023-09-22T03:27:36.868Z,13.30
2023-09-22T03:30:07.025Z,13.30
2023-09-22T03:32:35.138Z,13.30
2023-09-22T03:35:06.852Z,13.30
2023-09-22T03:37:34.744Z,13.10
2023-09-22T03:40:17.261Z,13.30
2023-09-22T03:42:45.827Z,13.40
2023-09-22T03:45:13.806Z,13.30
2023-09-22T03:47:41.999Z,13.40
2023-09-22T03:50:10.019Z,13.30
2023-09-22T03:52:37.922Z,13.30
2023-09-22T03:55:05.619Z,13.30
2023-09-22T03:57:32.660Z,13.30
2023-09-22T03:59:59.575Z,13.20
2023-09-22T04:02:29.152Z,13.20
2023-09-22T04:04:56.508Z,13.30
2023-09-22T04:07:23.409Z,13.30
2023-09-22T04:09:50.425Z,13.40
2023-09-22T04:12:17.661Z,13.30
2023-09-22T04:14:44.890Z,13.40
2023-09-22T04:17:12.061Z,13.50
2023-09-22T04:19:40.450Z,13.40
2023-09-22T04:22:09.496Z,13.40
2023-09-22T04:24:38.349Z,13.40
2023-09-22T04:27:10.020Z,13.40
2023-09-22T04:29:37.366Z,13.40
2023-09-22T04:32:06.350Z,13.30
2023-09-22T04:34:34.142Z,13.40
2023-09-22T04:37:05.661Z,13.30
2023-09-22T04:39:34.378Z,13.20
2023-09-22T04:42:02.393Z,13.30
2023-09-22T04:44:29.629Z,13.30
2023-09-22T04:46:56.786Z,13.30
2023-09-22T04:49:24.270Z,13.30
2023-09-22T04:51:53.207Z,13.30
2023-09-22T04:54:20.704Z,13.30
2023-09-22T04:56:47.883Z,13.30
2023-09-22T04:59:17.430Z,13.10
2023-09-22T05:01:44.829Z,13.30
2023-09-22T05:04:12.283Z,13.30
2023-09-22T05:06:39.542Z,13.30
2023-09-22T05:09:08.653Z,13.40
2023-09-22T05:11:36.296Z,13.30
2023-09-22T05:14:05.236Z,13.40
2023-09-22T05:16:32.728Z,13.40
2023-09-22T05:19:01.296Z,13.50
2023-09-22T05:21:28.386Z,13.50
2023-09-22T05:23:55.589Z,13.60
2023-09-22T05:26:22.825Z,13.50
2023-09-22T05:28:50.615Z,13.50
2023-09-22T05:31:18.354Z,13.60
2023-09-22T05:33:45.324Z,13.60
2023-09-22T05:36:12.802Z,13.60
2023-09-22T05:38:39.761Z,13.60
2023-09-22T05:41:06.673Z,13.60
2023-09-22T05:43:34.315Z,13.60
2023-09-22T05:46:01.452Z,13.60
2023-09-22T05:48:28.391Z,13.60
2023-09-22T05:50:57.466Z,13.70
2023-09-22T05:53:26.421Z,13.80
2023-09-22T05:56:09.574Z,13.90
2023-09-22T05:58:38.761Z,13.90
2023-09-22T06:01:11.333Z,14.10
2023-09-22T06:03:40.729Z,14.10
2023-09-22T06:06:11.091Z,14.20
2023-09-22T06:08:38.789Z,14.10
2023-09-22T06:11:06.264Z,14.10
2023-09-22T06:13:34.742Z,14.20
2023-09-22T06:16:02.843Z,14.20
2023-09-22T06:18:30.962Z,14.30
2023-09-22T06:21:00.177Z,14.30
2023-09-22T06:23:29.489Z,14.20
2023-09-22T06:26:03.441Z,14.30
2023-09-22T06:28:32.072Z,14.20
2023-09-22T06:31:01.096Z,14.20
2023-09-22T06:33:29.305Z,14.20
2023-09-22T06:35:58.566Z,14.20
2023-09-22T06:38:25.516Z,14.20
2023-09-22T06:40:56.408Z,14.30
2023-09-22T06:43:25.456Z,14.30
2023-09-22T06:45:53.927Z,14.30
2023-09-22T06:48:27.730Z,14.30
2023-09-22T06:50:58.814Z,14.20
2023-09-22T06:53:28.040Z,14.30
2023-09-22T06:56:07.838Z,14.20
2023-09-22T06:58:37.024Z,14.20
2023-09-22T07:01:12.154Z,14.20
2023-09-22T07:03:40.137Z,14.30
2023-09-22T07:06:09.380Z,14.20
2023-09-22T07:08:36.825Z,14.30
2023-09-22T07:11:04.688Z,14.30
2023-09-22T07:13:31.742Z,14.20
2023-09-22T07:15:59.457Z,14.20
2023-09-22T07:18:27.279Z,14.30
2023-09-22T07:20:54.908Z,14.30
2023-09-22T07:23:23.008Z,14.30
2023-09-22T07:26:06.527Z,14.40
2023-09-22T07:28:33.808Z,14.50
2023-09-22T07:31:01.319Z,14.60
2023-09-22T07:33:32.732Z,14.30
2023-09-22T07:36:00.602Z,14.70
2023-09-22T07:38:28.445Z,14.90
2023-09-22T07:40:55.429Z,14.90
2023-09-22T07:43:22.753Z,14.90
2023-09-22T07:45:50.910Z,14.90
2023-09-22T07:48:18.063Z,14.90
2023-09-22T07:50:45.012Z,14.90
2023-09-22T07:53:12.056Z,14.90
2023-09-22T07:55:39.740Z,14.90
2023-09-22T07:58:08.105Z,14.90
2023-09-22T08:00:35.447Z,14.90
2023-09-22T08:03:02.879Z,14.90
2023-09-22T08:05:29.889Z,15.10
2023-09-22T08:07:59.877Z,15.30
2023-09-22T08:10:29.298Z,15.30
2023-09-22T08:12:56.487Z,15.50
2023-09-22T08:15:23.681Z,15.70
2023-09-22T08:17:50.899Z,15.70
2023-09-22T08:20:19.156Z,15.80
2023-09-22T08:22:48.642Z,16.00
2023-09-22T08:25:15.988Z,15.90
2023-09-22T08:27:43.659Z,15.90
2023-09-22T08:30:12.866Z,15.90
2023-09-22T08:32:42.244Z,15.80
2023-09-22T08:35:11.315Z,15.80
2023-09-22T08:37:41.687Z,15.70
2023-09-22T08:40:10.685Z,15.70
2023-09-22T08:42:38.757Z,15.70
2023-09-22T08:45:07.817Z,15.80
2023-09-22T08:47:41.023Z,15.70
2023-09-22T08:50:12.898Z,15.70
2023-09-22T08:52:41.426Z,16.00
2023-09-22T08:55:09.950Z,15.90
2023-09-22T08:57:37.243Z,15.90
2023-09-22T09:00:13.305Z,16.10
2023-09-22T09:02:40.797Z,15.90
2023-09-22T09:05:22.736Z,15.90
2023-09-22T09:07:51.205Z,16.30
2023-09-22T09:10:35.419Z,16.30
2023-09-22T09:13:03.830Z,16.10
2023-09-22T09:15:43.540Z,16.00
2023-09-22T09:18:13.143Z,16.10
2023-09-22T09:20:42.801Z,16.10
2023-09-22T09:23:15.308Z,16.10
2023-09-22T09:25:45.299Z,16.10
2023-09-22T09:28:13.721Z,16.20
2023-09-22T09:30:51.256Z,16.30
2023-09-22T09:33:21.698Z,16.30
2023-09-22T09:35:51.740Z,16.30
2023-09-22T09:38:21.578Z,16.20
2023-09-22T09:40:49.764Z,16.30
2023-09-22T09:43:17.475Z,16.30
2023-09-22T09:45:50.471Z,16.20
2023-09-22T09:48:19.478Z,16.20
2023-09-22T09:50:52.668Z,16.20
2023-09-22T09:53:50.973Z,16.10
2023-09-22T09:56:19.492Z,16.20
2023-09-22T09:58:47.049Z,16.20
2023-09-22T10:01:15.286Z,16.10
2023-09-22T10:03:44.674Z,16.10
2023-09-22T10:06:13.776Z,16.20
2023-09-22T10:08:41.058Z,16.20
2023-09-22T10:11:12.514Z,16.30
2023-09-22T10:13:40.016Z,16.30
2023-09-22T10:16:09.712Z,16.30
2023-09-22T10:18:52.434Z,16.30
2023-09-22T10:21:54.074Z,16.40
2023-09-22T10:24:27.340Z,16.40
2023-09-22T10:26:55.430Z,16.60
2023-09-22T10:29:39.433Z,16.60
2023-09-22T10:32:23.054Z,16.70
2023-09-22T10:34:53.013Z,16.80
2023-09-22T10:37:21.846Z,16.90
2023-09-22T10:39:53.961Z,17.20
2023-09-22T10:42:21.933Z,17.00
2023-09-22T10:45:05.103Z,17.00
2023-09-22T10:47:41.784Z,17.10
2023-09-22T10:50:11.556Z,17.40
2023-09-22T10:52:39.026Z,17.50
2023-09-22T10:55:07.410Z,17.30
2023-09-22T10:57:34.676Z,17.40
2023-09-22T11:00:02.790Z,17.30
2023-09-22T11:02:30.139Z,17.50
2023-09-22T11:04:58.270Z,17.70
2023-09-22T11:07:34.541Z,17.90
2023-09-22T11:10:03.674Z,18.00
2023-09-22T11:12:30.865Z,18.20
2023-09-22T11:14:58.499Z,18.40
2023-09-22T11:17:39.090Z,18.40
2023-09-22T11:20:13.807Z,18.20
2023-09-22T11:22:42.314Z,17.90
2023-09-22T11:25:12.692Z,17.70
2023-09-22T11:27:54.996Z,17.60
2023-09-22T11:30:27.899Z,17.80
2023-09-22T11:32:56.259Z,18.20
2023-09-22T11:35:48.222Z,18.00
2023-09-22T11:38:30.979Z,17.90
2023-09-22T11:41:09.323Z,18.10
2023-09-22T11:43:46.394Z,18.20
2023-09-22T11:46:17.060Z,18.10
2023-09-22T11:48:53.234Z,17.50
2023-09-22T11:51:21.192Z,17.00
2023-09-22T11:53:48.975Z,16.60
2023-09-22T11:56:16.078Z,16.40
2023-09-22T11:58:43.112Z,16.40
2023-09-22T12:01:10.966Z,16.40
2023-09-22T12:03:37.958Z,16.60
2023-09-22T12:06:04.939Z,16.90
2023-09-22T12:08:32.701Z,17.10
2023-09-22T12:11:02.012Z,17.30
2023-09-22T12:13:29.154Z,17.30
2023-09-22T12:15:56.271Z,17.30
2023-09-22T12:18:23.226Z,17.30
2023-09-22T12:20:50.398Z,17.40
2023-09-22T12:23:17.232Z,17.50
2023-09-22T12:25:44.223Z,17.50
2023-09-22T12:28:11.278Z,17.40
2023-09-22T12:30:38.231Z,17.40
2023-09-22T12:33:06.157Z,17.70
2023-09-22T12:35:33.060Z,17.70
2023-09-22T12:37:59.956Z,18.00
2023-09-22T12:40:27.236Z,18.10
2023-09-22T12:42:54.283Z,18.10
2023-09-22T12:45:23.452Z,18.00
2023-09-22T12:47:51.104Z,17.90
2023-09-22T12:50:18.068Z,17.90
2023-09-22T12:52:45.061Z,17.80
2023-09-22T12:55:12.080Z,17.60
2023-09-22T12:57:40.422Z,17.70
2023-09-22T13:00:08.479Z,18.00
2023-09-22T13:02:35.707Z,18.60
2023-09-22T13:05:04.674Z,19.30
2023-09-22T13:07:31.783Z,19.70
2023-09-22T13:09:59.267Z,20.10
2023-09-22T13:12:26.319Z,20.40
2023-09-22T13:14:55.061Z,21.20
2023-09-22T13:17:24.895Z,21.10
2023-09-22T13:19:51.997Z,21.00
2023-09-22T13:22:19.371Z,21.20
2023-09-22T13:24:46.298Z,21.30
2023-09-22T13:27:13.509Z,22.40
2023-09-22T13:32:10.740Z,22.50
2023-09-22T13:34:38.735Z,21.90
2023-09-22T13:37:05.934Z,21.30
2023-09-22T13:39:33.457Z,21.00
2023-09-22T13:42:00.961Z,20.90
2023-09-22T13:44:27.796Z,21.10
2023-09-22T13:46:55.165Z,21.60
2023-09-22T13:49:22.906Z,21.70
2023-09-22T13:51:50.321Z,21.30
2023-09-22T13:54:17.912Z,20.60
2023-09-22T13:56:44.786Z,20.20
2023-09-22T13:59:13.291Z,19.60
2023-09-22T14:01:40.634Z,19.30
2023-09-22T14:04:07.719Z,19.30
2023-09-22T14:06:34.817Z,19.70
2023-09-22T14:09:01.772Z,21.10
2023-09-22T14:11:29.342Z,22.00
2023-09-22T14:13:56.380Z,23.40
2023-09-22T14:16:26.654Z,24.10
2023-09-22T14:18:54.428Z,23.00
2023-09-22T14:21:21.255Z,22.10
2023-09-22T14:23:48.463Z,21.20
2023-09-22T14:26:15.636Z,21.50
2023-09-22T14:38:39.940Z,22.90
2023-09-22T14:41:08.956Z,22.40
2023-09-22T14:43:36.888Z,23.10
2023-09-22T14:46:06.590Z,22.70
2023-09-22T14:48:34.199Z,22.70
2023-09-22T14:51:02.581Z,21.90
2023-09-22T14:53:29.912Z,21.90
2023-09-22T14:55:59.683Z,21.60
2023-09-22T15:05:49.505Z,20.50
2023-09-22T15:08:16.758Z,20.40
2023-09-22T15:10:51.435Z,20.10
2023-09-22T15:25:35.538Z,19.20
2023-09-22T15:28:02.578Z,19.30
2023-09-22T15:30:29.628Z,18.90
2023-09-22T15:32:56.558Z,18.60
2023-09-22T15:35:23.440Z,18.30
2023-09-22T15:37:53.448Z,18.00
2023-09-22T15:40:20.632Z,17.70
2023-09-22T15:42:48.331Z,17.50
2023-09-22T15:45:15.421Z,17.20
2023-09-22T15:47:44.059Z,17.00
2023-09-22T15:50:12.030Z,16.90
2023-09-22T15:52:38.967Z,16.80
2023-09-22T15:55:07.267Z,16.80
2023-09-22T15:57:34.206Z,16.90
2023-09-22T16:00:01.130Z,16.90
2023-09-22T16:02:29.019Z,16.80
2023-09-22T16:04:56.083Z,16.80
2023-09-22T16:07:23.436Z,16.70
2023-09-22T16:09:51.970Z,16.70
2023-09-22T16:12:19.296Z,16.60
2023-09-22T16:14:48.661Z,16.50
2023-09-22T16:17:15.847Z,16.40
2023-09-22T16:19:42.905Z,16.30
2023-09-22T16:22:10.772Z,16.20
2023-09-22T16:24:37.864Z,16.10
2023-09-22T16:27:05.219Z,16.00
2023-09-22T16:29:32.185Z,15.90
2023-09-22T16:31:59.975Z,15.90
2023-09-22T16:34:29.397Z,15.90
2023-09-22T16:36:57.468Z,16.00
2023-09-22T16:39:24.378Z,16.00
2023-09-22T16:41:51.352Z,16.00
2023-09-22T16:44:18.257Z,16.10
2023-09-22T16:46:45.404Z,16.10
2023-09-22T16:49:13.849Z,16.00
2023-09-22T16:51:43.550Z,16.00
2023-09-22T16:54:11.421Z,15.90
2023-09-22T16:56:38.985Z,15.90
2023-09-22T16:59:06.192Z,15.70
2023-09-22T17:01:34.953Z,15.50
2023-09-22T17:04:02.060Z,15.40
2023-09-22T17:06:32.077Z,15.30
2023-09-22T17:09:00.060Z,15.30
2023-09-22T17:11:29.090Z,15.30
2023-09-22T17:13:56.221Z,15.40
2023-09-22T17:16:23.334Z,15.20
2023-09-22T17:18:50.271Z,15.30
2023-09-22T17:21:29.471Z,15.30
2023-09-22T17:23:58.956Z,15.20
2023-09-22T17:26:26.082Z,15.10
2023-09-22T17:28:54.992Z,15.00
2023-09-22T17:31:22.999Z,14.90
2023-09-22T17:33:50.517Z,14.80
2023-09-22T17:36:18.359Z,14.90
2023-09-22T17:38:45.573Z,14.80
2023-09-22T17:41:14.744Z,14.70
2023-09-22T17:43:42.227Z,14.60
2023-09-22T17:46:10.094Z,14.40
2023-09-22T17:48:37.077Z,14.40
2023-09-22T17:51:07.955Z,14.50
2023-09-22T17:53:35.842Z,14.40
2023-09-22T17:56:04.362Z,14.50
2023-09-22T17:58:31.558Z,14.50
2023-09-22T18:00:58.495Z,14.50
2023-09-22T18:03:25.431Z,14.50
2023-09-22T18:05:52.540Z,14.70
2023-09-22T18:08:19.603Z,14.60
2023-09-22T18:10:47.960Z,14.60
2023-09-22T18:13:14.985Z,14.60
2023-09-22T18:15:41.887Z,14.60
2023-09-22T18:18:12.250Z,14.70
2023-09-22T18:20:40.458Z,15.00
2023-09-22T18:23:09.714Z,15.20
2023-09-22T18:25:38.140Z,15.30
2023-09-22T18:28:05.479Z,15.40
2023-09-22T18:30:37.660Z,15.40
2023-09-22T18:33:04.758Z,15.40
2023-09-22T18:35:31.912Z,15.30
2023-09-22T18:37:58.862Z,15.30
2023-09-22T18:40:25.763Z,15.20
2023-09-22T18:42:53.028Z,15.00
2023-09-22T18:45:20.735Z,14.80
2023-09-22T18:47:47.673Z,14.80
2023-09-22T18:50:15.658Z,14.80
2023-09-22T18:52:42.881Z,14.80
2023-09-22T18:55:09.984Z,14.70
2023-09-22T18:57:36.932Z,14.80
2023-09-22T19:00:04.399Z,14.70
2023-09-22T19:02:32.175Z,14.60
2023-09-22T19:05:09.824Z,14.60
2023-09-22T19:07:51.428Z,14.60
2023-09-22T19:10:18.523Z,14.50
2023-09-22T19:12:45.419Z,14.40
2023-09-22T19:15:12.333Z,14.30
2023-09-22T19:17:44.370Z,14.20
2023-09-22T19:20:13.043Z,14.00
2023-09-22T19:22:40.797Z,13.90
2023-09-22T19:25:09.071Z,13.70
2023-09-22T19:27:39.175Z,13.50
2023-09-22T19:30:07.429Z,13.40
2023-09-22T19:32:34.963Z,13.30
2023-09-22T19:35:05.458Z,13.10
2023-09-22T19:37:36.661Z,13.20
2023-09-22T19:40:06.929Z,13.10
2023-09-22T19:42:35.323Z,13.00
2023-09-22T19:45:04.616Z,12.90
2023-09-22T19:47:32.154Z,12.80
2023-09-22T19:49:59.366Z,12.90
2023-09-22T19:52:26.504Z,12.80
2023-09-22T19:54:54.016Z,13.00
2023-09-22T19:57:22.335Z,12.70
2023-09-22T19:59:49.399Z,12.80
2023-09-22T20:02:18.413Z,12.80
2023-09-22T20:04:47.138Z,12.70
2023-09-22T20:07:14.124Z,12.60
2023-09-22T20:09:40.966Z,12.60
2023-09-22T20:12:08.024Z,12.60
2023-09-22T20:14:34.975Z,12.50
2023-09-22T20:17:02.170Z,12.50
2023-09-22T20:19:29.203Z,12.40
2023-09-22T20:21:56.205Z,12.40
2023-09-22T20:24:24.660Z,12.50
2023-09-22T20:26:51.611Z,12.40
2023-09-22T20:29:18.509Z,11.90
2023-09-22T20:31:45.778Z,12.30
2023-09-22T20:34:12.979Z,12.30
2023-09-22T20:36:40.112Z,12.40
2023-09-22T20:39:06.943Z,12.30
2023-09-22T20:41:33.972Z,12.20
2023-09-22T20:44:01.435Z,12.30
2023-09-22T20:46:30.345Z,12.20
2023-09-22T20:48:57.291Z,12.20
2023-09-22T20:51:25.085Z,12.10
2023-09-22T20:53:53.189Z,12.10
2023-09-22T20:56:20.899Z,12.00
2023-09-22T20:58:49.726Z,12.00
2023-09-22T21:01:17.547Z,11.90
2023-09-22T21:03:45.251Z,11.80
2023-09-22T21:06:12.593Z,11.70
2023-09-22T21:08:42.709Z,11.70
2023-09-22T21:11:09.809Z,11.60
2023-09-22T21:13:36.751Z,11.60
2023-09-22T21:16:03.678Z,11.60
2023-09-22T21:18:31.697Z,11.60
2023-09-22T21:21:05.919Z,11.50
2023-09-22T21:23:33.398Z,11.50
2023-09-22T21:26:04.440Z,11.50
2023-09-22T21:28:31.805Z,11.50
2023-09-22T21:31:00.619Z,11.50
2023-09-22T21:33:28.057Z,11.50
2023-09-22T21:35:56.035Z,11.50
2023-09-22T21:38:22.868Z,11.60
2023-09-22T21:40:49.829Z,11.60
2023-09-22T21:43:16.647Z,11.60
2023-09-22T21:45:43.682Z,11.50
2023-09-22T21:48:12.123Z,11.60
2023-09-22T21:50:42.991Z,11.70
2023-09-22T21:53:10.619Z,11.70
2023-09-22T21:55:42.286Z,11.70
2023-09-22T21:58:09.225Z,11.70
2023-09-22T22:00:36.020Z,11.60
2023-09-22T22:03:03.061Z,11.70
2023-09-22T22:05:31.708Z,11.80
2023-09-22T22:07:59.999Z,11.80
2023-09-22T22:10:26.959Z,11.80
2023-09-22T22:12:53.828Z,11.80
2023-09-22T22:15:20.640Z,11.70
2023-09-22T22:17:47.622Z,11.70
2023-09-22T22:20:18.865Z,11.70
2023-09-22T22:22:46.483Z,11.70
2023-09-22T22:25:13.440Z,11.70
2023-09-22T22:27:40.525Z,11.70
2023-09-22T22:30:07.986Z,11.70
2023-09-22T22:32:35.135Z,11.80
2023-09-22T22:35:02.808Z,11.80
2023-09-22T22:37:29.817Z,11.80
2023-09-22T22:39:57.712Z,11.90
2023-09-22T22:42:24.849Z,12.00
2023-09-22T22:44:51.924Z,12.00
2023-09-22T22:47:18.855Z,11.90
2023-09-22T22:49:46.064Z,11.80
2023-09-22T22:52:13.652Z,11.70
2023-09-22T22:54:41.221Z,11.70
2023-09-22T22:57:08.356Z,11.60
2023-09-22T22:59:38.440Z,11.60
2023-09-22T23:02:05.689Z,11.50
2023-09-22T23:04:33.513Z,11.40
2023-09-22T23:07:00.629Z,11.40
2023-09-22T23:09:29.096Z,11.40
2023-09-22T23:11:56.189Z,11.40
2023-09-22T23:14:24.398Z,11.30
2023-09-22T23:16:52.439Z,11.30
2023-09-22T23:19:20.039Z,11.30
2023-09-22T23:21:48.834Z,11.30
2023-09-22T23:24:15.858Z,11.30
2023-09-22T23:26:43.335Z,11.30
2023-09-22T23:29:11.970Z,11.40
2023-09-22T23:31:41.994Z,11.30
2023-09-22T23:34:11.041Z,11.40
2023-09-22T23:36:38.332Z,11.40
2023-09-22T23:39:06.935Z,11.40
2023-09-22T23:41:34.120Z,11.40
2023-09-22T23:44:01.075Z,11.50
2023-09-22T23:46:35.637Z,11.50
2023-09-22T23:49:07.399Z,11.50
2023-09-22T23:51:34.844Z,11.50
2023-09-22T23:54:03.570Z,11.40
2023-09-22T23:56:31.886Z,11.40
2023-09-22T23:58:58.811Z,11.40
